Terminal Aerodrome Forecast
Issued by NWS

Home | Current Version | Previous Version | Text Only | Print | Product List | Glossary On
Versions: 1 2 3 4 5 6 7 8 9 10 11 12 13 14 15 16 17 18 19 20
000
FTUS41 KPBZ 240500
TAFHLG
TAF
KHLG 240520Z 2406/2506 34007KT P6SM BKN020 OVC060
     FM240800 34012KT P6SM OVC015
     FM241400 01008KT P6SM BKN035
     FM242000 01006KT P6SM SCT040
     FM250200 VRB02KT P6SM SKC=

USA.gov is the U.S. government's official web portal to all federal, state and local government web resources and services.